<?xml version="1.0" encoding="UTF-8" standalone="no" ?>
<gpx version="1.1" creator="Visorando" xmlns:xsi="http://www.w3.org/2001/XMLSchema-instance" xmlns="http://www.topografix.com/GPX/1/1" xsi:schemaLocation="http://www.topografix.com/GPX/1/1 http://www.topografix.com/GPX/1/1/gpx.xsd">
 <metadata>
  <link href="https://www.visorando.com/">
  <text>https://www.visorando.com/</text></link>
 </metadata>
 <trk>
  <trkseg>
   <trkpt lat="45.417510" lon="6.364000">
    <ele>1593</ele>
    <time>2021-08-24T15:57:47+02:00</time>
   </trkpt>
   <trkpt lat="45.417040" lon="6.363510">
    <ele>1586</ele>
    <time>2021-08-24T15:57:52+02:00</time>
   </trkpt>
   <trkpt lat="45.417040" lon="6.363510">
    <ele>1586</ele>
    <time>2021-08-24T15:57:57+02:00</time>
   </trkpt>
   <trkpt lat="45.416630" lon="6.363340">
    <ele>1587</ele>
    <time>2021-08-24T15:58:02+02:00</time>
   </trkpt>
   <trkpt lat="45.416630" lon="6.363340">
    <ele>1587</ele>
    <time>2021-08-24T15:58:07+02:00</time>
   </trkpt>
   <trkpt lat="45.416050" lon="6.362760">
    <ele>1578</ele>
    <time>2021-08-24T15:58:12+02:00</time>
   </trkpt>
   <trkpt lat="45.416050" lon="6.362760">
    <ele>1578</ele>
    <time>2021-08-24T15:58:17+02:00</time>
   </trkpt>
   <trkpt lat="45.415970" lon="6.362650">
    <ele>1574</ele>
    <time>2021-08-24T15:58:22+02:00</time>
   </trkpt>
   <trkpt lat="45.415970" lon="6.362650">
    <ele>1574</ele>
    <time>2021-08-24T15:58:27+02:00</time>
   </trkpt>
   <trkpt lat="45.415700" lon="6.362710">
    <ele>1568</ele>
    <time>2021-08-24T15:58:32+02:00</time>
   </trkpt>
   <trkpt lat="45.415700" lon="6.362710">
    <ele>1568</ele>
    <time>2021-08-24T15:58:37+02:00</time>
   </trkpt>
   <trkpt lat="45.415430" lon="6.363140">
    <ele>1571</ele>
    <time>2021-08-24T15:58:42+02:00</time>
   </trkpt>
   <trkpt lat="45.415430" lon="6.363140">
    <ele>1571</ele>
    <time>2021-08-24T15:58:47+02:00</time>
   </trkpt>
   <trkpt lat="45.415110" lon="6.362890">
    <ele>1576</ele>
    <time>2021-08-24T15:58:52+02:00</time>
   </trkpt>
   <trkpt lat="45.415110" lon="6.362890">
    <ele>1576</ele>
    <time>2021-08-24T15:58:57+02:00</time>
   </trkpt>
   <trkpt lat="45.415490" lon="6.361450">
    <ele>1560</ele>
    <time>2021-08-24T15:59:02+02:00</time>
   </trkpt>
   <trkpt lat="45.415490" lon="6.361450">
    <ele>1560</ele>
    <time>2021-08-24T15:59:07+02:00</time>
   </trkpt>
   <trkpt lat="45.415370" lon="6.360460">
    <ele>1553</ele>
    <time>2021-08-24T15:59:12+02:00</time>
   </trkpt>
   <trkpt lat="45.415370" lon="6.360460">
    <ele>1553</ele>
    <time>2021-08-24T15:59:17+02:00</time>
   </trkpt>
   <trkpt lat="45.415130" lon="6.360010">
    <ele>1551</ele>
    <time>2021-08-24T15:59:22+02:00</time>
   </trkpt>
   <trkpt lat="45.415130" lon="6.360010">
    <ele>1551</ele>
    <time>2021-08-24T15:59:27+02:00</time>
   </trkpt>
   <trkpt lat="45.415010" lon="6.359690">
    <ele>1548</ele>
    <time>2021-08-24T15:59:32+02:00</time>
   </trkpt>
   <trkpt lat="45.415010" lon="6.359690">
    <ele>1548</ele>
    <time>2021-08-24T15:59:37+02:00</time>
   </trkpt>
   <trkpt lat="45.414960" lon="6.359090">
    <ele>1541</ele>
    <time>2021-08-24T15:59:42+02:00</time>
   </trkpt>
   <trkpt lat="45.414960" lon="6.359090">
    <ele>1541</ele>
    <time>2021-08-24T15:59:47+02:00</time>
   </trkpt>
   <trkpt lat="45.414720" lon="6.358680">
    <ele>1537</ele>
    <time>2021-08-24T15:59:52+02:00</time>
   </trkpt>
   <trkpt lat="45.414720" lon="6.358680">
    <ele>1537</ele>
    <time>2021-08-24T15:59:57+02:00</time>
   </trkpt>
   <trkpt lat="45.414370" lon="6.358510">
    <ele>1539</ele>
    <time>2021-08-24T16:00:02+02:00</time>
   </trkpt>
   <trkpt lat="45.414370" lon="6.358510">
    <ele>1539</ele>
    <time>2021-08-24T16:00:07+02:00</time>
   </trkpt>
   <trkpt lat="45.413860" lon="6.357690">
    <ele>1535</ele>
    <time>2021-08-24T16:00:12+02:00</time>
   </trkpt>
   <trkpt lat="45.413860" lon="6.357690">
    <ele>1535</ele>
    <time>2021-08-24T16:00:17+02:00</time>
   </trkpt>
   <trkpt lat="45.412580" lon="6.354020">
    <ele>1511</ele>
    <time>2021-08-24T16:00:22+02:00</time>
   </trkpt>
   <trkpt lat="45.412580" lon="6.354020">
    <ele>1511</ele>
    <time>2021-08-24T16:00:27+02:00</time>
   </trkpt>
   <trkpt lat="45.412400" lon="6.352540">
    <ele>1499</ele>
    <time>2021-08-24T16:00:32+02:00</time>
   </trkpt>
   <trkpt lat="45.412400" lon="6.352540">
    <ele>1499</ele>
    <time>2021-08-24T16:00:37+02:00</time>
   </trkpt>
   <trkpt lat="45.411750" lon="6.351640">
    <ele>1487</ele>
    <time>2021-08-24T16:00:42+02:00</time>
   </trkpt>
   <trkpt lat="45.411750" lon="6.351640">
    <ele>1487</ele>
    <time>2021-08-24T16:00:47+02:00</time>
   </trkpt>
   <trkpt lat="45.411130" lon="6.351340">
    <ele>1483</ele>
    <time>2021-08-24T16:00:52+02:00</time>
   </trkpt>
   <trkpt lat="45.411130" lon="6.351340">
    <ele>1483</ele>
    <time>2021-08-24T16:00:57+02:00</time>
   </trkpt>
   <trkpt lat="45.410730" lon="6.351170">
    <ele>1481</ele>
    <time>2021-08-24T16:01:02+02:00</time>
   </trkpt>
   <trkpt lat="45.410730" lon="6.351170">
    <ele>1481</ele>
    <time>2021-08-24T16:01:07+02:00</time>
   </trkpt>
   <trkpt lat="45.409820" lon="6.350440">
    <ele>1471</ele>
    <time>2021-08-24T16:01:12+02:00</time>
   </trkpt>
   <trkpt lat="45.409820" lon="6.350440">
    <ele>1471</ele>
    <time>2021-08-24T16:01:17+02:00</time>
   </trkpt>
   <trkpt lat="45.409000" lon="6.350100">
    <ele>1464</ele>
    <time>2021-08-24T16:01:22+02:00</time>
   </trkpt>
   <trkpt lat="45.409000" lon="6.350100">
    <ele>1464</ele>
    <time>2021-08-24T16:01:27+02:00</time>
   </trkpt>
   <trkpt lat="45.407750" lon="6.349560">
    <ele>1454</ele>
    <time>2021-08-24T16:01:32+02:00</time>
   </trkpt>
   <trkpt lat="45.407750" lon="6.349560">
    <ele>1454</ele>
    <time>2021-08-24T16:01:37+02:00</time>
   </trkpt>
   <trkpt lat="45.406690" lon="6.348720">
    <ele>1443</ele>
    <time>2021-08-24T16:01:42+02:00</time>
   </trkpt>
   <trkpt lat="45.406690" lon="6.348720">
    <ele>1443</ele>
    <time>2021-08-24T16:01:47+02:00</time>
   </trkpt>
   <trkpt lat="45.406150" lon="6.348620">
    <ele>1442</ele>
    <time>2021-08-24T16:01:52+02:00</time>
   </trkpt>
   <trkpt lat="45.406150" lon="6.348620">
    <ele>1442</ele>
    <time>2021-08-24T16:01:57+02:00</time>
   </trkpt>
   <trkpt lat="45.403930" lon="6.346750">
    <ele>1419</ele>
    <time>2021-08-24T16:02:02+02:00</time>
   </trkpt>
   <trkpt lat="45.403930" lon="6.346750">
    <ele>1419</ele>
    <time>2021-08-24T16:02:07+02:00</time>
   </trkpt>
   <trkpt lat="45.403350" lon="6.346730">
    <ele>1417</ele>
    <time>2021-08-24T16:02:12+02:00</time>
   </trkpt>
   <trkpt lat="45.403350" lon="6.346730">
    <ele>1417</ele>
    <time>2021-08-24T16:02:17+02:00</time>
   </trkpt>
   <trkpt lat="45.403240" lon="6.346540">
    <ele>1410</ele>
    <time>2021-08-24T16:02:22+02:00</time>
   </trkpt>
   <trkpt lat="45.403240" lon="6.346540">
    <ele>1410</ele>
    <time>2021-08-24T16:02:27+02:00</time>
   </trkpt>
   <trkpt lat="45.403360" lon="6.346320">
    <ele>1405</ele>
    <time>2021-08-24T16:02:32+02:00</time>
   </trkpt>
   <trkpt lat="45.403360" lon="6.346320">
    <ele>1405</ele>
    <time>2021-08-24T16:02:37+02:00</time>
   </trkpt>
   <trkpt lat="45.405260" lon="6.346750">
    <ele>1395</ele>
    <time>2021-08-24T16:02:42+02:00</time>
   </trkpt>
   <trkpt lat="45.405260" lon="6.346750">
    <ele>1395</ele>
    <time>2021-08-24T16:02:47+02:00</time>
   </trkpt>
   <trkpt lat="45.406560" lon="6.346150">
    <ele>1380</ele>
    <time>2021-08-24T16:02:52+02:00</time>
   </trkpt>
  </trkseg>
 </trk></gpx>